Sullivan City, Texas
Current Conditions -  °F | °C
As of 8:53 AM on Saturday 20 Dec 2014 (Local Time) from KMFE Reporting Station
Light Rain Light Rain  
Wind Chill: 56°   Ceiling: 600
Heat Index: 56°   Visibility: 2.5mi
Dew Point: 55°   Wind: 8mph
Humidity: 97%   Direction: 10°N
Pressure: 30.2"   Gusts: NA
Location:  26.28°N, 98.56°W
Report Text: KMFE 201453Z 01007KT 2 1/2SM -RA BR OVC006 13/13 A3020 RMK AO2 RAB39 SLP225 P0000 60000 T01330128 51022
Loading
Personal Weather Stations






























Interactive Weather Map New forecast layout! Learn more

10-Day Weather Forecast

Advertisements
Track Severe Weather on mobile